createdAt,value
2022-10-11T01:06:15.981Z,100754.20
2022-10-11T01:08:44.564Z,100750.20
2022-10-11T01:11:17.961Z,100749.80
2022-10-11T01:13:57.661Z,100750.60
2022-10-11T01:17:17.008Z,100750.20
2022-10-11T01:20:37.876Z,100740.40
2022-10-11T01:23:19.629Z,100742.60
2022-10-11T01:26:18.176Z,100742.60
2022-10-11T01:29:39.062Z,100740.20
2022-10-11T01:32:09.836Z,100737.80
2022-10-11T01:35:11.234Z,100735.80
2022-10-11T01:37:48.465Z,100738.40
2022-10-11T01:40:26.980Z,100734.20
2022-10-11T01:42:57.193Z,100738.00
2022-10-11T01:45:25.618Z,100732.00
2022-10-11T01:48:07.107Z,100726.60
2022-10-11T01:50:42.791Z,100736.20
2022-10-11T01:53:21.798Z,100730.00
2022-10-11T01:56:21.589Z,100731.40
2022-10-11T01:59:11.144Z,100735.00
2022-10-11T02:02:01.685Z,100729.40
2022-10-11T02:04:36.625Z,100724.40
2022-10-11T02:07:31.323Z,100722.00
2022-10-11T02:10:26.276Z,100723.80
2022-10-11T02:13:07.054Z,100724.00
2022-10-11T02:15:39.118Z,100719.60
2022-10-11T02:18:14.672Z,100713.80
2022-10-11T02:20:45.490Z,100718.40
2022-10-11T02:23:27.476Z,100710.80
2022-10-11T02:25:57.379Z,100706.60
2022-10-11T02:28:31.574Z,100712.20
2022-10-11T02:31:01.785Z,100705.00
2022-10-11T02:33:56.082Z,100707.80
2022-10-11T02:36:45.872Z,100708.60
2022-10-11T02:39:52.210Z,100715.60
2022-10-11T02:42:33.975Z,100722.20
2022-10-11T02:45:10.927Z,100721.00
2022-10-11T02:47:40.805Z,100721.00
2022-10-11T02:50:11.574Z,100716.60
2022-10-11T02:52:39.597Z,100717.40
2022-10-11T02:55:08.970Z,100723.60
2022-10-11T02:57:36.853Z,100719.40
2022-10-11T03:00:05.940Z,100721.60
2022-10-11T03:02:33.696Z,100728.00
2022-10-11T03:05:01.655Z,100721.00
2022-10-11T03:07:29.674Z,100720.40
2022-10-11T03:09:57.789Z,100731.20
2022-10-11T03:12:25.591Z,100730.00
2022-10-11T03:14:53.488Z,100725.20
2022-10-11T03:17:36.159Z,100728.60
2022-10-11T03:20:08.328Z,100734.20
2022-10-11T03:22:36.691Z,100727.00
2022-10-11T03:25:05.135Z,100731.40
2022-10-11T03:27:33.828Z,100732.00
2022-10-11T03:30:01.929Z,100729.40
2022-10-11T03:32:29.956Z,100739.20
2022-10-11T03:34:58.320Z,100733.20
2022-10-11T03:37:26.842Z,100736.60
2022-10-11T03:39:54.601Z,100740.20
2022-10-11T03:42:22.411Z,100740.20
2022-10-11T03:44:51.939Z,100741.20
2022-10-11T03:47:20.063Z,100746.20
2022-10-11T03:49:47.954Z,100742.00
2022-10-11T03:52:15.820Z,100750.00
2022-10-11T03:54:43.709Z,100755.60
2022-10-11T03:57:11.524Z,100751.80
2022-10-11T03:59:39.261Z,100751.60
2022-10-11T04:02:07.225Z,100749.40
2022-10-11T04:04:35.211Z,100745.80
2022-10-11T04:07:03.268Z,100748.00
2022-10-11T04:09:31.044Z,100747.80
2022-10-11T04:11:58.941Z,100753.00
2022-10-11T04:14:27.248Z,100761.20
2022-10-11T04:16:58.414Z,100768.40
2022-10-11T04:19:28.473Z,100760.00
2022-10-11T04:21:56.434Z,100766.00
2022-10-11T04:24:24.358Z,100760.20
2022-10-11T04:26:52.211Z,100754.00
2022-10-11T04:29:20.210Z,100753.60
2022-10-11T04:31:47.919Z,100757.60
2022-10-11T04:34:15.775Z,100757.80
2022-10-11T04:36:47.633Z,100759.40
2022-10-11T04:39:17.893Z,100763.80
2022-10-11T04:41:45.719Z,100766.40
2022-10-11T04:44:13.505Z,100772.80
2022-10-11T04:46:41.995Z,100780.20
2022-10-11T04:49:09.811Z,100781.80
2022-10-11T04:51:37.927Z,100781.20
2022-10-11T04:54:05.775Z,100787.20
2022-10-11T04:56:33.629Z,100785.40
2022-10-11T04:59:01.401Z,100784.60
2022-10-11T05:01:29.271Z,100785.80
2022-10-11T05:03:57.119Z,100787.20
2022-10-11T05:06:24.866Z,100794.40
2022-10-11T05:08:52.678Z,100797.40
2022-10-11T05:11:20.446Z,100795.00
2022-10-11T05:13:48.336Z,100798.00
2022-10-11T05:16:16.879Z,100800.80
2022-10-11T05:18:45.010Z,100808.40
2022-10-11T05:21:25.401Z,100801.00
2022-10-11T05:23:55.997Z,100805.40
2022-10-11T05:26:27.686Z,100808.20
2022-10-11T05:28:56.017Z,100814.80
2022-10-11T05:31:24.183Z,100812.80
2022-10-11T05:33:52.114Z,100811.20
2022-10-11T05:36:20.487Z,100818.00
2022-10-11T05:38:48.407Z,100819.00
2022-10-11T05:41:17.167Z,100824.80
